createdAt,value
2023-01-18T00:00:03.634Z,100
2023-01-18T00:05:03.300Z,99.96
2023-01-18T00:10:02.767Z,98.78
2023-01-18T00:15:03.454Z,98.7
2023-01-18T00:20:02.633Z,98.51
2023-01-18T00:25:02.527Z,98.61
2023-01-18T00:30:03.340Z,98.47
2023-01-18T00:35:03.298Z,98.44
2023-01-18T00:40:03.005Z,98.51
2023-01-18T00:45:02.406Z,98.64
2023-01-18T00:50:03.486Z,98.58
2023-01-18T00:55:04.220Z,98.68
2023-01-18T01:00:03.510Z,98.71
2023-01-18T01:05:03.158Z,98.59
2023-01-18T01:10:02.898Z,99.08
2023-01-18T01:15:02.764Z,99.21
2023-01-18T01:20:03.619Z,99.14
2023-01-18T01:25:03.320Z,99.12
2023-01-18T01:30:02.595Z,99.06
2023-01-18T01:35:03.321Z,99.44
2023-01-18T01:40:03.396Z,99.09
2023-01-18T01:45:03.140Z,98.89
2023-01-18T01:50:03.283Z,98.93
2023-01-18T01:55:03.387Z,99.05
2023-01-18T02:00:02.692Z,99.06
2023-01-18T02:05:03.335Z,99.17
2023-01-18T02:10:03.037Z,98.64
2023-01-18T02:15:03.246Z,98.65
2023-01-18T02:20:02.868Z,98.61
2023-01-18T02:25:02.663Z,98.61
2023-01-18T02:30:03.620Z,97.74
2023-01-18T02:35:03.218Z,97.58
2023-01-18T02:40:02.981Z,96.72
2023-01-18T02:45:02.615Z,96.41
2023-01-18T02:50:03.276Z,96.65
2023-01-18T02:55:03.442Z,97
2023-01-18T03:00:02.809Z,97.34
2023-01-18T03:05:02.356Z,97.66
2023-01-18T03:10:03.424Z,97.71
2023-01-18T03:15:03.253Z,97.69
2023-01-18T03:20:03.011Z,97.47
2023-01-18T03:25:02.889Z,97.38
2023-01-18T03:30:02.965Z,97.31
2023-01-18T03:35:03.755Z,97.06
2023-01-18T03:40:03.324Z,96.88
2023-01-18T03:45:03.014Z,96.64
2023-01-18T03:50:02.874Z,96.34
2023-01-18T03:55:03.670Z,96.16
2023-01-18T04:00:03.159Z,95.92
2023-01-18T04:05:02.869Z,95.95
2023-01-18T04:10:02.660Z,95.49
2023-01-18T04:15:03.371Z,95.54
2023-01-18T04:20:03.109Z,95
2023-01-18T04:25:02.836Z,95.02
2023-01-18T04:30:02.543Z,94.95
2023-01-18T04:35:03.187Z,94.85
2023-01-18T04:40:03.250Z,94.48
2023-01-18T04:45:03.062Z,93.84
2023-01-18T04:50:02.636Z,93.7
2023-01-18T04:55:03.742Z,93.54
2023-01-18T05:00:03.161Z,93.36
2023-01-18T05:05:02.959Z,93.2
2023-01-18T05:10:02.938Z,92.9
2023-01-18T05:15:02.844Z,92.23
2023-01-18T05:20:02.301Z,92.49
2023-01-18T05:25:03.412Z,92.53
2023-01-18T05:30:07.136Z,92.29
2023-01-18T05:35:02.790Z,92.15
2023-01-18T05:40:02.847Z,92.41
2023-01-18T05:45:02.563Z,92.79
2023-01-18T05:50:03.285Z,92.4
2023-01-18T05:55:04.348Z,92.37
2023-01-18T06:00:02.841Z,92.53
2023-01-18T06:05:02.559Z,92.68
2023-01-18T06:10:03.375Z,92.62
2023-01-18T06:15:02.980Z,92.63
2023-01-18T06:20:02.890Z,92.88
2023-01-18T06:25:02.933Z,93.29
2023-01-18T06:30:02.957Z,93.24
2023-01-18T06:35:02.943Z,93.52
2023-01-18T06:40:03.399Z,93.74
2023-01-18T06:45:02.830Z,93.69
2023-01-18T06:50:02.500Z,93.33
2023-01-18T06:55:04.107Z,93.22
2023-01-18T07:00:03.207Z,93.01
2023-01-18T07:05:02.908Z,93.14
2023-01-18T07:10:02.715Z,93.27
2023-01-18T07:15:23.109Z,93.4
2023-01-18T07:20:02.930Z,93.47
2023-01-18T07:25:02.626Z,93.52
2023-01-18T07:30:03.415Z,93.45
2023-01-18T07:35:02.856Z,93.84
2023-01-18T07:40:02.813Z,93.77
2023-01-18T07:45:02.828Z,93.67
2023-01-18T07:50:02.517Z,94.29
2023-01-18T07:55:07.232Z,94.4
2023-01-18T08:00:03.022Z,94.63
2023-01-18T08:05:02.913Z,94.51
2023-01-18T08:10:02.690Z,94.35
2023-01-18T08:15:02.683Z,94.26
2023-01-18T08:20:02.630Z,94.13
2023-01-18T08:25:03.367Z,94.11
2023-01-18T08:30:03.177Z,93.73
2023-01-18T08:35:03.162Z,94.05
2023-01-18T08:40:03.320Z,93.65
2023-01-18T08:45:03.018Z,93.52
2023-01-18T08:50:02.744Z,93.31
2023-01-18T08:55:03.877Z,92.29
2023-01-18T09:00:03.325Z,91.98
2023-01-18T09:05:02.976Z,91.98
2023-01-18T09:10:02.881Z,91.65
2023-01-18T09:15:02.867Z,91.33
2023-01-18T09:20:02.760Z,90.99
2023-01-18T09:25:02.942Z,90.33
2023-01-18T09:30:02.599Z,89.84
2023-01-18T09:35:03.252Z,89.14
2023-01-18T09:40:02.910Z,88.62
2023-01-18T09:45:02.867Z,88.77
2023-01-18T09:50:02.702Z,88.81
2023-01-18T09:55:03.513Z,88.59
2023-01-18T10:00:03.199Z,87.54
2023-01-18T10:05:02.807Z,87
2023-01-18T10:10:02.658Z,86.51
2023-01-18T10:15:03.406Z,86.69
2023-01-18T10:20:03.162Z,87.17
2023-01-18T10:25:02.894Z,87.71
2023-01-18T10:30:02.841Z,87.31
2023-01-18T10:35:02.840Z,88.5
2023-01-18T10:40:02.630Z,88.13
2023-01-18T10:45:03.411Z,89.57
2023-01-18T10:50:03.459Z,88.9
2023-01-18T10:55:03.060Z,89.48
2023-01-18T11:00:03.322Z,89.63
2023-01-18T11:05:03.371Z,90.25
2023-01-18T11:10:03.164Z,90.4
2023-01-18T11:15:03.011Z,90.97
2023-01-18T11:20:02.884Z,90.68
2023-01-18T11:25:02.783Z,91.7
2023-01-18T11:30:02.724Z,92.67
2023-01-18T11:35:02.581Z,92.44
2023-01-18T11:40:03.284Z,92.91
2023-01-18T11:45:03.193Z,92.94
2023-01-18T11:50:22.743Z,92.95
2023-01-18T11:55:03.161Z,93.38
2023-01-18T12:00:03.386Z,93.86
2023-01-18T12:05:03.298Z,94.69
2023-01-18T12:10:03.071Z,95.4
2023-01-18T12:15:02.608Z,96.08
2023-01-18T12:20:02.619Z,96.3
2023-01-18T12:25:03.583Z,96.62
2023-01-18T12:30:03.291Z,96.77
2023-01-18T12:35:25.270Z,97.05
2023-01-18T12:40:03.286Z,97.38
2023-01-18T12:45:03.177Z,97.93
2023-01-18T12:50:02.928Z,98.11
2023-01-18T12:55:03.311Z,98.47
2023-01-18T13:00:03.380Z,98.7
2023-01-18T13:05:03.190Z,98.94
2023-01-18T13:10:02.911Z,98.85
2023-01-18T13:15:03.113Z,99.17
2023-01-18T13:20:02.593Z,99.4
2023-01-18T13:25:03.326Z,99.33
2023-01-18T13:30:03.504Z,99.58
2023-01-18T13:35:24.421Z,99.5
2023-01-18T13:40:02.691Z,99.8
2023-01-18T13:45:02.706Z,99.62
2023-01-18T13:50:02.683Z,99.94
2023-01-18T13:55:03.796Z,100
2023-01-18T14:00:03.088Z,99.93
2023-01-18T14:05:02.961Z,98.99
2023-01-18T14:10:02.724Z,98.47
2023-01-18T14:15:02.618Z,97.48
2023-01-18T14:20:02.579Z,96.62
2023-01-18T14:25:03.279Z,96.47
2023-01-18T14:30:03.476Z,96.18
2023-01-18T14:35:03.490Z,96.27
2023-01-18T14:40:03.113Z,96.15
2023-01-18T14:45:02.900Z,96.22
2023-01-18T14:50:02.613Z,96.59
2023-01-18T14:55:03.806Z,96.89
2023-01-18T15:00:03.265Z,96.25
2023-01-18T15:05:02.980Z,94.65
2023-01-18T15:10:02.699Z,93.05
2023-01-18T15:15:02.667Z,92
2023-01-18T15:20:02.874Z,92.23
2023-01-18T15:25:02.383Z,92.38
2023-01-18T15:30:02.738Z,92.21
2023-01-18T15:35:02.589Z,92.36
2023-01-18T15:40:02.676Z,92.22
2023-01-18T15:45:02.633Z,92.22
2023-01-18T15:50:03.278Z,92.08
2023-01-18T15:55:03.627Z,92.08
2023-01-18T16:00:02.846Z,91.91
2023-01-18T16:05:02.583Z,90.98
2023-01-18T16:10:03.457Z,90.24
2023-01-18T16:15:03.079Z,89.89
2023-01-18T16:20:02.888Z,89.81
2023-01-18T16:25:02.966Z,88.66
2023-01-18T16:30:02.624Z,89.31
2023-01-18T16:35:03.218Z,90.07
2023-01-18T16:40:03.181Z,89.98
2023-01-18T16:45:02.856Z,89.33
2023-01-18T16:50:03.480Z,89.99
2023-01-18T16:55:04.161Z,90.3
2023-01-18T17:00:03.178Z,89.81
2023-01-18T17:05:03.189Z,90.27
2023-01-18T17:10:03.461Z,89.38
2023-01-18T17:15:02.704Z,89.51
2023-01-18T17:20:02.950Z,89.07
2023-01-18T17:25:03.407Z,89.19
2023-01-18T17:30:03.274Z,89.05
2023-01-18T17:35:02.898Z,89.53
2023-01-18T17:40:12.317Z,90.31
2023-01-18T17:45:03.722Z,89.03
2023-01-18T17:50:03.356Z,88.5
2023-01-18T17:55:03.507Z,89.08
2023-01-18T18:00:03.168Z,89.66
2023-01-18T18:05:03.041Z,90.24
2023-01-18T18:10:02.939Z,89.2
2023-01-18T18:15:02.753Z,87.14
2023-01-18T18:20:03.647Z,86.19
2023-01-18T18:25:03.227Z,86.11
2023-01-18T18:30:03.322Z,85.4
2023-01-18T18:35:25.258Z,83.73
2023-01-18T18:40:03.247Z,85.74
2023-01-18T18:45:03.052Z,88.1
2023-01-18T18:50:02.798Z,89.6
2023-01-18T18:55:02.835Z,89.6
2023-01-18T19:00:02.722Z,89.39
2023-01-18T19:05:03.392Z,90.7
2023-01-18T19:10:03.063Z,91.8
2023-01-18T19:15:03.201Z,92.42
2023-01-18T19:20:02.984Z,94.32
2023-01-18T19:25:04.557Z,94.53
2023-01-18T19:30:02.735Z,95.46
2023-01-18T19:35:02.662Z,95.82
2023-01-18T19:40:02.517Z,96.55
2023-01-18T19:45:05.524Z,96.6
2023-01-18T19:50:02.707Z,97.67
2023-01-18T19:55:03.548Z,97.64
2023-01-18T20:00:03.295Z,98.48
2023-01-18T20:05:03.000Z,97.5
2023-01-18T20:10:02.789Z,98.03
2023-01-18T20:15:03.472Z,98.13
2023-01-18T20:20:02.525Z,98.38
2023-01-18T20:25:03.328Z,99.47
2023-01-18T20:30:03.455Z,99.2
2023-01-18T20:35:03.327Z,99.85
2023-01-18T20:40:03.308Z,99.24
2023-01-18T20:45:02.854Z,100
2023-01-18T20:50:02.698Z,100
2023-01-18T20:55:03.446Z,100
2023-01-18T21:00:03.766Z,100
2023-01-18T21:05:03.311Z,100
2023-01-18T21:10:03.003Z,100
2023-01-18T21:15:02.854Z,100
2023-01-18T21:20:02.575Z,100
2023-01-18T21:25:03.445Z,100
2023-01-18T21:30:03.170Z,100
2023-01-18T21:35:02.980Z,100
2023-01-18T21:40:03.138Z,100
2023-01-18T21:45:03.558Z,100
2023-01-18T21:50:19.086Z,100
2023-01-18T21:55:03.296Z,100
2023-01-18T22:00:02.703Z,100
2023-01-18T22:05:03.563Z,100
2023-01-18T22:10:06.720Z,100
2023-01-18T22:15:02.731Z,100
2023-01-18T22:20:02.739Z,100
2023-01-18T22:25:03.503Z,100
2023-01-18T22:30:03.414Z,100
2023-01-18T22:35:03.079Z,100
2023-01-18T22:40:02.771Z,100
2023-01-18T22:45:02.767Z,100
2023-01-18T22:50:02.533Z,100
2023-01-18T22:55:03.423Z,100
2023-01-18T23:00:03.393Z,100
2023-01-18T23:05:02.763Z,100
2023-01-18T23:10:03.424Z,100
2023-01-18T23:15:03.192Z,100
2023-01-18T23:20:03.066Z,100
2023-01-18T23:25:02.870Z,100
2023-01-18T23:30:03.072Z,100
2023-01-18T23:35:03.428Z,100
2023-01-18T23:40:03.154Z,100
2023-01-18T23:45:03.350Z,100
2023-01-18T23:50:03.058Z,100
2023-01-18T23:55:03.370Z,100
